createdAt,value
2023-02-01T00:01:29.257Z,44.30
2023-02-01T00:03:57.573Z,43.20
2023-02-01T00:06:26.640Z,42.30
2023-02-01T00:08:55.400Z,42.60
2023-02-01T00:11:23.707Z,42.40
2023-02-01T00:13:52.586Z,42.50
2023-02-01T00:16:30.745Z,44.50
2023-02-01T00:19:04.106Z,42.00
2023-02-01T00:21:32.634Z,45.20
2023-02-01T00:24:00.712Z,44.40
2023-02-01T00:26:36.585Z,40.60
2023-02-01T00:29:06.801Z,41.60
2023-02-01T00:31:35.156Z,42.00
2023-02-01T00:34:03.451Z,43.40
2023-02-01T00:36:32.480Z,44.70
2023-02-01T00:39:00.580Z,44.10
2023-02-01T00:41:29.743Z,44.20
2023-02-01T00:43:57.754Z,44.90
2023-02-01T00:46:26.339Z,43.60
2023-02-01T00:48:54.660Z,43.70
2023-02-01T00:51:24.875Z,43.40
2023-02-01T00:53:53.062Z,46.00
2023-02-01T00:56:21.309Z,45.60
2023-02-01T00:58:49.983Z,44.90
2023-02-01T01:01:26.046Z,44.00
2023-02-01T01:03:56.379Z,43.30
2023-02-01T01:06:32.417Z,41.10
2023-02-01T01:09:02.781Z,41.50
2023-02-01T01:11:33.716Z,41.70
2023-02-01T01:14:02.111Z,39.20
2023-02-01T01:16:31.489Z,37.90
2023-02-01T01:18:59.932Z,37.90
2023-02-01T01:21:28.311Z,39.20
2023-02-01T01:23:57.132Z,34.80
2023-02-01T01:26:27.624Z,30.80
2023-02-01T01:28:57.529Z,29.50
2023-02-01T01:31:27.574Z,26.90
2023-02-01T01:33:57.728Z,26.90
2023-02-01T01:36:26.882Z,24.60
2023-02-01T01:38:55.462Z,23.70
2023-02-01T01:41:25.771Z,21.90
2023-02-01T01:44:02.741Z,21.80
2023-02-01T01:46:35.862Z,18.00
2023-02-01T01:49:10.518Z,19.30
2023-02-01T01:51:44.003Z,17.70
2023-02-01T01:56:42.557Z,17.70
2023-02-01T01:59:10.963Z,18.00
2023-02-01T02:01:39.570Z,18.50
2023-02-01T02:04:08.091Z,17.60
2023-02-01T02:06:46.605Z,18.30
2023-02-01T02:09:15.279Z,17.90
2023-02-01T02:11:43.504Z,17.10
2023-02-01T02:14:13.017Z,15.60
2023-02-01T02:16:41.105Z,16.60
2023-02-01T02:19:35.556Z,16.20
2023-02-01T02:22:31.886Z,15.10
2023-02-01T02:25:31.078Z,15.60
2023-02-01T02:28:10.009Z,16.00
2023-02-01T02:30:44.500Z,15.10
2023-02-01T02:33:18.768Z,14.50
2023-02-01T02:36:22.037Z,13.60
2023-02-01T02:39:17.396Z,14.30
2023-02-01T02:42:18.895Z,14.60
2023-02-01T02:45:29.065Z,14.00
2023-02-01T02:48:16.353Z,13.90
2023-02-01T02:51:03.038Z,14.00
2023-02-01T02:53:55.833Z,13.00
2023-02-01T02:56:43.142Z,13.60
2023-02-01T02:59:30.922Z,14.00
2023-02-01T03:02:20.491Z,15.80
2023-02-01T03:04:57.355Z,17.60
2023-02-01T03:07:54.082Z,19.20
2023-02-01T03:10:28.129Z,19.10
2023-02-01T03:13:02.110Z,14.90
2023-02-01T03:20:34.152Z,13.70
2023-02-01T03:23:02.225Z,13.30
2023-02-01T03:25:32.067Z,11.50
2023-02-01T03:28:09.954Z,12.20
2023-02-01T03:30:44.570Z,10.90
2023-02-01T03:33:24.011Z,12.00
2023-02-01T03:35:57.628Z,11.80
2023-02-01T03:38:32.488Z,12.10
2023-02-01T03:41:19.931Z,12.20
2023-02-01T03:44:01.185Z,12.30
2023-02-01T03:46:34.622Z,12.50
2023-02-01T03:49:05.563Z,11.50
2023-02-01T03:51:33.963Z,11.50
2023-02-01T03:54:03.642Z,11.70
2023-02-01T03:56:32.003Z,11.10
2023-02-01T03:59:00.249Z,10.80
2023-02-01T04:01:32.114Z,11.00
2023-02-01T04:04:00.429Z,10.80
2023-02-01T04:06:29.130Z,11.30
2023-02-01T04:09:00.467Z,10.90
2023-02-01T04:11:30.176Z,10.70
2023-02-01T04:13:59.191Z,12.00
2023-02-01T04:16:27.277Z,10.30
2023-02-01T04:18:55.543Z,10.40
2023-02-01T04:21:23.805Z,13.20
2023-02-01T04:23:51.946Z,11.10
2023-02-01T04:26:20.566Z,12.10
2023-02-01T04:28:52.188Z,11.30
2023-02-01T04:31:26.858Z,12.80
2023-02-01T04:33:56.139Z,11.60
2023-02-01T04:36:24.287Z,11.20
2023-02-01T04:38:52.707Z,10.00
2023-02-01T04:41:21.052Z,10.10
2023-02-01T04:43:49.624Z,10.30
2023-02-01T04:46:17.739Z,9.50
2023-02-01T04:48:46.017Z,9.10
2023-02-01T04:51:14.153Z,9.50
2023-02-01T04:53:42.363Z,9.10
2023-02-01T04:56:10.407Z,7.80
2023-02-01T04:58:38.827Z,9.00
2023-02-01T05:01:07.469Z,9.20
2023-02-01T05:03:35.842Z,9.60
2023-02-01T05:06:05.919Z,8.80
2023-02-01T05:08:34.894Z,9.40
2023-02-01T05:11:05.928Z,9.40
2023-02-01T05:13:49.294Z,9.80
2023-02-01T05:16:18.273Z,9.40
2023-02-01T05:18:47.062Z,9.60
2023-02-01T05:21:15.870Z,10.40
2023-02-01T05:24:03.139Z,12.50
2023-02-01T05:26:35.451Z,13.80
2023-02-01T05:29:04.770Z,14.60
2023-02-01T05:31:32.998Z,17.00
2023-02-01T05:34:01.457Z,16.60
2023-02-01T05:36:30.265Z,17.00
2023-02-01T05:38:59.382Z,15.60
2023-02-01T05:41:27.527Z,15.80
2023-02-01T05:43:55.697Z,14.80
2023-02-01T05:46:23.731Z,14.20
2023-02-01T05:48:51.800Z,14.40
2023-02-01T05:51:20.334Z,15.50
2023-02-01T05:53:48.447Z,15.50
2023-02-01T05:56:16.578Z,16.10
2023-02-01T05:58:44.879Z,15.30
2023-02-01T08:15:24.559Z,14.50
2023-02-01T08:17:52.721Z,14.30
2023-02-01T08:20:23.307Z,14.90
2023-02-01T08:22:54.050Z,14.10
2023-02-01T08:25:22.822Z,15.40
2023-02-01T08:27:52.462Z,13.50
2023-02-01T08:30:20.741Z,12.60
2023-02-01T08:32:49.099Z,14.70
2023-02-01T08:35:17.232Z,11.20
2023-02-01T08:37:45.219Z,11.20
2023-02-01T08:40:14.896Z,11.50
2023-02-01T08:42:51.845Z,11.80
2023-02-01T08:45:21.202Z,11.80
2023-02-01T08:47:56.541Z,10.90
2023-02-01T08:50:27.418Z,10.80
2023-02-01T08:53:06.040Z,10.70
2023-02-01T08:55:37.889Z,10.40
2023-02-01T08:58:06.266Z,11.60
2023-02-01T09:00:35.481Z,13.30
2023-02-01T09:03:03.762Z,12.90
2023-02-01T09:05:47.484Z,13.90
2023-02-01T09:08:17.433Z,13.40
2023-02-01T09:10:45.437Z,13.70
2023-02-01T09:13:14.440Z,12.90
2023-02-01T09:15:42.837Z,12.90
2023-02-01T09:18:10.774Z,13.70
2023-02-01T09:20:39.270Z,12.50
2023-02-01T09:23:08.465Z,11.50
2023-02-01T09:25:39.590Z,11.70
2023-02-01T09:28:08.889Z,12.40
2023-02-01T09:30:37.716Z,11.50
2023-02-01T09:33:06.251Z,12.10
2023-02-01T09:35:34.315Z,11.50
2023-02-01T09:38:02.720Z,12.20
2023-02-01T09:40:31.551Z,12.50
2023-02-01T09:43:12.462Z,13.00
2023-02-01T09:45:53.965Z,11.00
2023-02-01T09:48:25.312Z,11.10
2023-02-01T09:50:58.600Z,10.10
2023-02-01T09:56:07.581Z,12.20
2023-02-01T09:58:42.044Z,13.20
2023-02-01T10:01:24.560Z,12.70
2023-02-01T10:04:08.781Z,11.70
2023-02-01T10:06:37.329Z,12.70
2023-02-01T10:09:17.336Z,12.60
2023-02-01T10:12:06.002Z,11.30
2023-02-01T10:14:52.876Z,10.70
2023-02-01T10:17:59.205Z,10.80
2023-02-01T10:20:57.367Z,11.70
2023-02-01T10:23:34.448Z,10.70
2023-02-01T10:26:03.362Z,10.10
2023-02-01T10:28:48.787Z,8.40
2023-02-01T10:31:41.158Z,8.40
2023-02-01T10:34:17.363Z,7.80
2023-02-01T10:37:12.088Z,7.50
2023-02-01T10:39:40.343Z,6.80
2023-02-01T10:42:09.389Z,6.90
2023-02-01T10:44:41.601Z,7.10
2023-02-01T10:47:11.236Z,6.90
2023-02-01T10:49:54.018Z,7.00
2023-02-01T10:52:32.095Z,7.90
2023-02-01T10:55:39.364Z,7.80
2023-02-01T10:58:21.538Z,6.00
2023-02-01T11:00:50.447Z,6.30
2023-02-01T11:03:26.851Z,6.50
2023-02-01T11:05:55.763Z,5.70
2023-02-01T11:08:26.577Z,6.10
2023-02-01T11:11:03.095Z,7.50
2023-02-01T11:13:32.942Z,6.90
2023-02-01T11:16:01.292Z,7.00
2023-02-01T11:18:31.293Z,7.00
2023-02-01T11:20:59.393Z,7.10
2023-02-01T11:23:28.659Z,7.40
2023-02-01T11:26:21.410Z,7.00
2023-02-01T11:29:00.259Z,7.60
2023-02-01T11:31:28.615Z,7.80
2023-02-01T11:34:00.325Z,8.10
2023-02-01T11:36:31.059Z,7.10
2023-02-01T11:39:14.358Z,7.30
2023-02-01T11:44:24.275Z,6.70
2023-02-01T11:46:53.318Z,7.70
2023-02-01T11:49:27.955Z,7.20
2023-02-01T11:52:36.026Z,7.10
2023-02-01T11:55:29.243Z,5.70
2023-02-01T11:58:07.072Z,6.60
2023-02-01T12:01:12.286Z,6.20
2023-02-01T12:03:55.617Z,5.90
2023-02-01T12:06:36.180Z,6.20
2023-02-01T12:09:30.848Z,6.50
2023-02-01T12:12:02.926Z,6.60
2023-02-01T12:14:38.393Z,9.50
2023-02-01T12:17:18.830Z,7.50
2023-02-01T12:20:05.953Z,6.20
2023-02-01T12:22:52.526Z,9.40
2023-02-01T12:25:37.683Z,5.40
2023-02-01T12:28:23.079Z,7.50
2023-02-01T12:31:14.354Z,4.10
2023-02-01T12:34:12.237Z,3.50
2023-02-01T12:37:14.349Z,3.90
2023-02-01T12:39:57.638Z,3.80
2023-02-01T12:42:28.250Z,3.40
2023-02-01T12:45:16.132Z,3.50
2023-02-01T12:47:53.599Z,2.90
2023-02-01T12:50:34.259Z,4.00
2023-02-01T12:53:47.852Z,3.20
2023-02-01T12:56:38.128Z,4.10
2023-02-01T12:59:18.557Z,4.20
2023-02-01T13:02:00.629Z,3.80
2023-02-01T13:05:04.424Z,4.10
2023-02-01T13:07:40.905Z,4.10
2023-02-01T13:10:28.398Z,5.10
2023-02-01T13:13:46.213Z,5.30
2023-02-01T13:16:30.082Z,4.30
2023-02-01T13:19:21.860Z,4.70
2023-02-01T13:21:52.771Z,5.20
2023-02-01T13:24:40.340Z,5.50
2023-02-01T13:27:12.368Z,5.20
2023-02-01T13:29:59.045Z,5.40
2023-02-01T13:33:54.934Z,5.20
2023-02-01T13:36:02.743Z,5.90
2023-02-01T13:38:52.812Z,6.40
2023-02-01T13:41:31.508Z,7.40
2023-02-01T13:44:02.692Z,6.30
2023-02-01T13:46:31.343Z,6.80
2023-02-01T13:49:01.620Z,6.20
2023-02-01T13:51:43.286Z,6.10
2023-02-01T13:54:40.518Z,6.10
2023-02-01T13:57:39.391Z,6.30
2023-02-01T14:00:31.535Z,7.30
2023-02-01T14:03:03.457Z,6.20
2023-02-01T14:05:31.563Z,5.80
2023-02-01T14:08:05.476Z,5.20
2023-02-01T14:10:50.273Z,4.80
2023-02-01T14:13:43.350Z,5.00
2023-02-01T14:16:14.041Z,4.80
2023-02-01T14:18:42.356Z,4.80
2023-02-01T14:21:22.951Z,4.30
2023-02-01T14:23:54.737Z,4.90
2023-02-01T14:26:29.499Z,4.60
2023-02-01T14:28:59.705Z,5.80
2023-02-01T14:31:45.100Z,5.90
2023-02-01T14:34:19.681Z,5.30
2023-02-01T14:36:53.225Z,6.10
2023-02-01T14:42:02.360Z,8.00
2023-02-01T14:44:36.056Z,8.00
2023-02-01T14:47:26.276Z,5.40
2023-02-01T14:50:13.138Z,4.30
2023-02-01T14:52:44.742Z,4.10
2023-02-01T14:55:17.745Z,3.70
2023-02-01T14:57:47.232Z,4.20
2023-02-01T15:00:24.440Z,3.90
2023-02-01T15:02:53.351Z,4.00
2023-02-01T15:05:32.017Z,4.50
2023-02-01T15:08:13.649Z,3.90
2023-02-01T15:10:45.673Z,4.30
2023-02-01T15:13:22.268Z,4.40
2023-02-01T15:16:14.345Z,4.20
2023-02-01T15:18:42.923Z,5.60
2023-02-01T15:21:29.279Z,5.10
2023-02-01T15:24:35.779Z,5.90
2023-02-01T15:27:05.967Z,5.90
2023-02-01T15:29:34.549Z,5.60
2023-02-01T15:32:03.542Z,5.40
2023-02-01T15:35:01.295Z,8.50
2023-02-01T15:37:31.620Z,7.70
2023-02-01T15:40:12.015Z,10.90
2023-02-01T15:42:59.880Z,7.80
2023-02-01T15:45:29.650Z,7.80
2023-02-01T15:47:58.778Z,6.80
2023-02-01T15:50:27.659Z,9.10
2023-02-01T15:52:58.590Z,7.90
2023-02-01T15:55:40.842Z,9.10
2023-02-01T15:58:19.720Z,7.20
2023-02-01T16:00:59.109Z,8.40
2023-02-01T16:03:39.179Z,6.30
2023-02-01T16:06:13.324Z,8.00
2023-02-01T16:08:59.136Z,6.30
2023-02-01T16:11:40.951Z,8.80
2023-02-01T16:14:11.422Z,8.80
2023-02-01T16:16:39.650Z,12.70
2023-02-01T16:19:07.638Z,6.80
2023-02-01T16:21:35.999Z,7.10
2023-02-01T16:24:05.544Z,6.70
2023-02-01T16:26:39.195Z,6.50
2023-02-01T16:29:07.490Z,6.10
2023-02-01T16:31:39.840Z,6.20
2023-02-01T16:34:12.398Z,6.70
2023-02-01T16:36:41.689Z,7.10
2023-02-01T16:39:12.329Z,7.90
2023-02-01T16:41:41.772Z,6.50
2023-02-01T16:44:10.017Z,6.60
2023-02-01T16:46:40.911Z,6.30
2023-02-01T16:49:20.562Z,6.80
2023-02-01T16:51:50.019Z,11.40
2023-02-01T16:54:17.993Z,8.60
2023-02-01T16:56:46.042Z,6.90
2023-02-01T16:59:15.432Z,8.00
2023-02-01T17:01:43.738Z,7.50
2023-02-01T17:04:12.130Z,8.40
2023-02-01T17:06:42.688Z,8.00
2023-02-01T17:09:11.076Z,8.50
2023-02-01T17:11:39.928Z,9.10
2023-02-01T17:14:16.538Z,8.90
2023-02-01T17:16:45.590Z,11.70
2023-02-01T17:19:24.129Z,10.10
2023-02-01T17:21:55.202Z,14.80
2023-02-01T17:24:30.752Z,8.50
2023-02-01T17:27:06.957Z,9.20
2023-02-01T17:29:35.022Z,15.30
2023-02-01T17:32:05.608Z,10.10
2023-02-01T17:34:34.622Z,9.90
2023-02-01T17:37:02.683Z,15.30
2023-02-01T17:39:51.473Z,15.50
2023-02-01T17:42:19.749Z,12.70
2023-02-01T17:44:48.276Z,14.20
2023-02-01T17:47:16.303Z,11.80
2023-02-01T17:49:44.542Z,10.70
2023-02-01T17:52:18.009Z,10.80
2023-02-01T17:54:47.816Z,10.00
2023-02-01T17:57:16.000Z,8.80
2023-02-01T17:59:45.365Z,11.20
2023-02-01T18:02:19.571Z,9.10
2023-02-01T20:10:30.923Z,18.80
2023-02-01T20:18:58.798Z,13.40
2023-02-01T20:21:27.591Z,14.20
2023-02-01T20:23:56.053Z,14.00
2023-02-01T20:26:25.636Z,25.30
2023-02-01T20:28:54.865Z,15.90
2023-02-01T20:31:29.201Z,17.80
2023-02-01T20:33:58.422Z,14.40
2023-02-01T20:36:28.653Z,15.70
2023-02-01T20:38:57.215Z,13.40
2023-02-01T20:41:25.927Z,16.00
2023-02-01T20:43:54.151Z,13.80
2023-02-01T20:46:22.577Z,13.40
2023-02-01T20:48:51.392Z,13.00
2023-02-01T20:51:20.988Z,11.90
2023-02-01T20:53:52.174Z,11.30
2023-02-01T20:56:21.331Z,11.60
2023-02-01T20:58:49.540Z,10.90
2023-02-01T21:01:19.378Z,10.10
2023-02-01T21:03:47.377Z,11.40
2023-02-01T21:06:17.225Z,12.10
2023-02-01T21:08:45.689Z,12.10
2023-02-01T21:11:14.729Z,11.60
2023-02-01T21:13:50.697Z,12.20
2023-02-01T21:16:21.677Z,12.50
2023-02-01T21:18:52.196Z,12.90
2023-02-01T21:21:20.933Z,11.80
2023-02-01T21:23:51.120Z,11.80
2023-02-01T21:26:22.420Z,11.00
2023-02-01T21:28:54.277Z,12.90
2023-02-01T21:31:26.630Z,12.30
2023-02-01T21:33:55.372Z,13.00
2023-02-01T21:36:29.127Z,12.10
2023-02-01T21:39:07.372Z,12.40
2023-02-01T21:41:56.915Z,11.00
2023-02-01T21:44:24.931Z,12.20
2023-02-01T21:46:55.530Z,12.50
2023-02-01T21:49:26.032Z,11.80
2023-02-01T21:51:55.058Z,11.40
2023-02-01T21:54:23.111Z,12.20
2023-02-01T21:56:51.543Z,10.50
2023-02-01T21:59:19.995Z,13.60
2023-02-01T22:01:48.190Z,14.10
2023-02-01T22:04:16.606Z,16.20
2023-02-01T22:06:48.350Z,15.40
2023-02-01T22:09:21.987Z,13.50
2023-02-01T22:11:51.242Z,12.30
2023-02-01T22:14:20.631Z,13.00
2023-02-01T22:16:49.160Z,11.90
2023-02-01T22:19:17.316Z,11.00
2023-02-01T22:21:46.804Z,10.30
2023-02-01T22:24:17.678Z,10.30
2023-02-01T22:26:46.058Z,10.40
2023-02-01T22:29:19.353Z,9.90
2023-02-01T22:31:47.565Z,10.40
2023-02-01T22:34:15.972Z,11.50
2023-02-01T22:36:44.254Z,11.00
2023-02-01T22:39:18.212Z,12.10
2023-02-01T22:42:06.956Z,11.40
2023-02-01T22:44:47.336Z,10.70
2023-02-01T22:47:18.398Z,10.10
2023-02-01T22:49:46.875Z,10.10
2023-02-01T22:52:15.440Z,11.80
2023-02-01T22:54:43.595Z,15.80
2023-02-01T22:57:11.746Z,14.00
2023-02-01T22:59:39.777Z,14.00
2023-02-01T23:02:07.834Z,15.00
2023-02-01T23:04:36.676Z,15.20
2023-02-01T23:07:05.548Z,16.50
2023-02-01T23:09:33.866Z,16.90
2023-02-01T23:12:02.400Z,14.50
2023-02-01T23:14:30.659Z,11.60
2023-02-01T23:17:00.650Z,12.00
2023-02-01T23:19:34.022Z,11.50
2023-02-01T23:22:02.083Z,12.10
2023-02-01T23:24:31.167Z,12.00
2023-02-01T23:27:02.464Z,11.70
2023-02-01T23:29:31.212Z,11.30
2023-02-01T23:32:00.470Z,11.20
2023-02-01T23:34:29.678Z,12.00
2023-02-01T23:36:59.457Z,12.10
2023-02-01T23:39:28.301Z,11.20
2023-02-01T23:41:56.304Z,12.40
2023-02-01T23:44:24.704Z,12.60
2023-02-01T23:46:53.063Z,12.30
2023-02-01T23:49:21.295Z,12.30
2023-02-01T23:51:53.103Z,12.60
2023-02-01T23:54:22.847Z,12.50
2023-02-01T23:56:51.261Z,11.60
2023-02-01T23:59:21.695Z,12.50
